Time;durP1;ratioP1;P1;durP2;ratioP2;P2;SDS_P1;SDS_P2;PMS_P1;PMS_P2;Temp;Humidity;BMP_temperature;BMP_pressure;BME280_temperature;BME280_humidity;BME280_pressure;Samples;Min_cycle;Max_cycle;Signal;HPM_P1;HPM_P2
2023/08/14 00:01:48;;;;;;;24.25;17.58;;;;;;;16.68;100.00;101485.22;5111790;28;20114;-68
2023/08/14 00:04:13;;;;;;;23.73;18.70;;;;;;;16.60;100.00;101483.28;5111731;28;20031;-68
2023/08/14 00:06:38;;;;;;;26.42;18.00;;;;;;;16.57;100.00;101484.78;5111674;28;20403;-67
2023/08/14 00:09:03;;;;;;;23.10;17.20;;;;;;;16.51;100.00;101475.75;5111536;28;20383;-67
2023/08/14 00:11:29;;;;;;;23.70;18.00;;;;;;;16.52;100.00;101479.38;5111600;28;20027;-68
2023/08/14 00:13:55;;;;;;;23.63;17.98;;;;;;;16.49;100.00;101485.63;5111623;28;20035;-68
2023/08/14 00:16:22;;;;;;;23.67;16.80;;;;;;;16.44;100.00;101480.19;5111555;28;20322;-68
2023/08/14 00:18:48;;;;;;;22.38;16.88;;;;;;;16.41;100.00;101483.66;5111652;28;20030;-68
2023/08/14 00:21:13;;;;;;;23.02;17.40;;;;;;;16.38;100.00;101480.38;5111578;28;20031;-69
2023/08/14 00:23:39;;;;;;;23.45;17.30;;;;;;;16.32;100.00;101475.28;5110733;28;20038;-68
2023/08/14 00:26:04;;;;;;;22.75;17.02;;;;;;;16.31;100.00;101477.25;5111526;28;20023;-68
2023/08/14 00:28:31;;;;;;;22.27;17.48;;;;;;;16.24;100.00;101468.56;5111608;28;20483;-68
2023/08/14 00:30:56;;;;;;;22.00;16.60;;;;;;;16.24;100.00;101457.41;5111695;28;20438;-69
2023/08/14 00:33:21;;;;;;;21.25;16.23;;;;;;;16.15;100.00;101465.78;5111402;28;20027;-69
2023/08/14 00:35:47;;;;;;;22.52;17.27;;;;;;;16.12;100.00;101460.03;5111277;28;20033;-69
2023/08/14 00:38:12;;;;;;;22.52;17.08;;;;;;;16.04;100.00;101462.50;5111468;28;20020;-69
2023/08/14 00:40:39;;;;;;;22.05;17.67;;;;;;;16.01;100.00;101456.78;5111472;28;20031;-69
2023/08/14 00:43:04;;;;;;;21.88;16.92;;;;;;;16.01;100.00;101457.56;5111572;28;20507;-69
2023/08/14 00:45:29;;;;;;;22.35;17.70;;;;;;;15.98;100.00;101463.81;5111412;28;20061;-69
2023/08/14 00:47:55;;;;;;;22.15;17.83;;;;;;;15.97;100.00;101459.38;5111456;28;20096;-68
2023/08/14 00:50:21;;;;;;;23.30;17.50;;;;;;;15.96;100.00;101470.88;5111383;28;20110;-69
2023/08/14 00:52:48;;;;;;;24.10;17.80;;;;;;;15.89;100.00;101466.59;5109851;28;20149;-69
2023/08/14 00:55:18;;;;;;;23.88;17.70;;;;;;;15.86;100.00;101456.09;5111314;28;20059;-69
2023/08/14 00:57:44;;;;;;;23.20;17.45;;;;;;;15.88;100.00;101464.13;5111424;28;20023;-69
2023/08/14 01:00:11;;;;;;;22.95;17.20;;;;;;;15.87;100.00;101459.72;5111328;28;20043;-69
2023/08/14 01:02:38;;;;;;;23.35;18.02;;;;;;;15.86;100.00;101461.66;5111364;28;20027;-69
2023/08/14 01:05:03;;;;;;;22.45;18.42;;;;;;;15.81;100.00;101447.88;5111348;28;20030;-69
2023/08/14 01:07:29;;;;;;;22.58;18.27;;;;;;;15.82;100.00;101449.47;5111236;28;20028;-68
2023/08/14 01:09:55;;;;;;;24.52;18.08;;;;;;;15.83;100.00;101442.75;5111445;28;20035;-69
2023/08/14 01:12:53;;;;;;;22.58;17.70;;;;;;;15.79;100.00;101447.38;5111378;28;20036;-69
2023/08/14 01:15:25;;;;;;;24.88;17.80;;;;;;;15.81;100.00;101452.59;5111270;28;20122;-69
2023/08/14 01:17:57;;;;;;;22.63;18.45;;;;;;;15.84;100.00;101452.00;5111208;28;20023;-68
2023/08/14 01:20:25;;;;;;;24.95;18.15;;;;;;;15.83;100.00;101441.94;5111181;28;20031;-69
2023/08/14 01:22:55;;;;;;;24.50;18.15;;;;;;;15.83;100.00;101445.53;5111091;28;20027;-68
2023/08/14 01:25:29;;;;;;;22.80;17.50;;;;;;;15.84;100.00;101440.84;5111085;28;20525;-68
2023/08/14 01:27:55;;;;;;;23.13;16.85;;;;;;;15.84;100.00;101441.63;5111186;28;20059;-68
2023/08/14 01:30:23;;;;;;;20.90;17.08;;;;;;;15.78;100.00;101439.31;5109720;28;20043;-69
2023/08/14 01:32:50;;;;;;;23.05;18.08;;;;;;;15.73;100.00;101441.13;5111057;28;20031;-69
2023/08/14 01:35:17;;;;;;;23.27;16.33;;;;;;;15.71;100.00;101431.44;5112992;28;20019;-69
2023/08/14 01:38:18;;;;;;;23.80;17.55;;;;;;;15.72;100.00;101436.69;5114862;28;20027;-69
2023/08/14 01:41:08;;;;;;;22.73;17.77;;;;;;;15.70;100.00;101432.59;5114858;28;20023;-69
2023/08/14 01:43:41;;;;;;;21.48;17.58;;;;;;;15.60;100.00;101431.75;5114831;28;20128;-69
2023/08/14 01:46:10;;;;;;;23.05;17.15;;;;;;;15.60;100.00;101430.94;5114822;28;20027;-69
2023/08/14 01:48:37;;;;;;;22.15;17.08;;;;;;;15.47;100.00;101417.97;5114769;28;20031;-68
2023/08/14 01:51:04;;;;;;;22.27;16.90;;;;;;;15.40;100.00;101424.81;5114638;28;20024;-69
2023/08/14 01:53:33;;;;;;;23.50;16.70;;;;;;;15.31;100.00;101414.81;5114590;28;20039;-69
2023/08/14 01:55:59;;;;;;;22.40;16.90;;;;;;;15.22;100.00;101412.84;5114538;28;20024;-69
2023/08/14 01:58:24;;;;;;;22.90;17.45;;;;;;;15.25;100.00;101411.34;5114449;28;20090;-69
2023/08/14 02:00:50;;;;;;;21.65;16.95;;;;;;;15.24;100.00;101404.97;5114525;28;20051;-69
2023/08/14 02:03:15;;;;;;;23.38;16.88;;;;;;;15.25;100.00;101400.22;5114432;28;20027;-68
2023/08/14 02:05:40;;;;;;;23.83;17.70;;;;;;;15.23;100.00;101397.75;5114340;28;20028;-69
2023/08/14 02:08:06;;;;;;;23.38;17.08;;;;;;;15.21;100.00;101404.81;5114316;28;20100;-68
2023/08/14 02:10:31;;;;;;;22.38;17.45;;;;;;;15.21;100.00;101397.25;5112959;28;20055;-69
2023/08/14 02:12:56;;;;;;;22.65;18.08;;;;;;;15.19;100.00;101395.94;5114224;28;20023;-68
2023/08/14 02:15:22;;;;;;;23.00;17.50;;;;;;;15.21;100.00;101404.81;5114127;28;20027;-69
2023/08/14 02:17:48;;;;;;;21.90;17.83;;;;;;;15.21;100.00;101390.88;5114140;28;20601;-68
2023/08/14 02:20:13;;;;;;;23.75;16.75;;;;;;;15.15;100.00;101383.78;5114091;28;20106;-68
2023/08/14 02:22:38;;;;;;;23.67;17.30;;;;;;;15.06;100.00;101392.94;5114039;28;20119;-69
2023/08/14 02:25:04;;;;;;;21.65;16.67;;;;;;;15.07;100.00;101394.59;5112566;28;20483;-69
2023/08/14 02:27:29;;;;;;;22.77;16.65;;;;;;;15.03;100.00;101392.78;5113952;28;20437;-68
2023/08/14 02:29:55;;;;;;;22.60;16.52;;;;;;;15.01;100.00;101381.13;5113660;28;20078;-68
2023/08/14 02:32:20;;;;;;;21.67;16.35;;;;;;;15.02;100.00;101380.00;5113916;28;20031;-69
2023/08/14 02:34:52;;;;;;;23.73;17.30;;;;;;;15.01;100.00;101383.91;5113649;28;20106;-69
2023/08/14 02:37:19;;;;;;;23.42;16.77;;;;;;;14.94;100.00;101378.81;5113673;28;20073;-69
2023/08/14 02:39:45;;;;;;;22.48;18.15;;;;;;;14.93;100.00;101375.22;5112364;28;20054;-69
2023/08/14 02:42:11;;;;;;;23.08;16.77;;;;;;;14.88;100.00;101363.41;5113708;28;20057;-68
2023/08/14 02:44:37;;;;;;;23.23;17.13;;;;;;;14.85;100.00;101369.59;5113679;28;20023;-68
2023/08/14 02:47:04;;;;;;;22.50;17.25;;;;;;;14.83;100.00;101372.72;5111514;28;20028;-68
2023/08/14 02:49:29;;;;;;;22.85;16.65;;;;;;;14.84;100.00;101379.09;5113640;28;20081;-68
2023/08/14 02:51:55;;;;;;;23.63;17.05;;;;;;;14.84;100.00;101371.59;5113699;28;20071;-69
2023/08/14 02:54:21;;;;;;;23.30;17.23;;;;;;;14.84;100.00;101376.31;5112363;28;20106;-69
2023/08/14 02:56:47;;;;;;;23.08;17.73;;;;;;;14.85;100.00;101378.81;5113370;28;20467;-69
2023/08/14 02:59:13;;;;;;;21.58;15.90;;;;;;;14.85;100.00;101383.53;5113393;27;20539;-66
2023/08/14 03:01:38;;;;;;;21.40;16.73;;;;;;;14.81;100.00;101378.63;5113326;28;20102;-68
2023/08/14 03:04:04;;;;;;;22.70;16.92;;;;;;;14.79;100.00;101372.56;5113184;28;20053;-66
2023/08/14 03:06:31;;;;;;;23.05;17.67;;;;;;;14.74;100.00;101380.22;5113299;28;20486;-69
2023/08/14 03:08:57;;;;;;;23.50;17.50;;;;;;;14.69;100.00;101383.16;5113685;28;20040;-69
2023/08/14 03:11:22;;;;;;;22.38;17.25;;;;;;;14.69;100.00;101385.94;5113199;28;20027;-69
2023/08/14 03:13:48;;;;;;;22.48;17.48;;;;;;;14.65;100.00;101394.91;5113046;28;20045;-70
2023/08/14 03:16:13;;;;;;;24.00;16.63;;;;;;;14.64;100.00;101381.31;5112990;28;20439;-67
2023/08/14 03:18:38;;;;;;;23.33;16.67;;;;;;;14.61;100.00;101373.59;5113150;28;20032;-68
2023/08/14 03:21:04;;;;;;;23.33;17.13;;;;;;;14.61;100.00;101381.94;5113093;28;20054;-69
2023/08/14 03:23:29;;;;;;;22.35;16.88;;;;;;;14.63;100.00;101379.66;5112928;28;20020;-69
2023/08/14 03:25:54;;;;;;;22.17;17.55;;;;;;;14.60;100.00;101381.09;5112919;28;20031;-69
2023/08/14 03:28:20;;;;;;;23.17;17.67;;;;;;;14.62;100.00;101386.38;5113097;28;20031;-69
2023/08/14 03:30:45;;;;;;;24.00;18.60;;;;;;;14.60;100.00;101377.50;5113013;28;20047;-69
2023/08/14 03:33:10;;;;;;;24.35;18.67;;;;;;;14.60;100.00;101378.31;5112716;28;20047;-69
2023/08/14 03:35:36;;;;;;;24.17;18.95;;;;;;;14.58;100.00;101375.06;5112552;28;20106;-67
2023/08/14 03:38:01;;;;;;;24.17;18.08;;;;;;;14.55;100.00;101381.25;5112492;28;20059;-67
2023/08/14 03:40:27;;;;;;;22.63;17.65;;;;;;;14.51;100.00;101375.50;5112456;28;20098;-67
2023/08/14 03:42:52;;;;;;;23.27;18.23;;;;;;;14.46;100.00;101372.03;5112708;28;20028;-69
2023/08/14 03:45:18;;;;;;;23.73;18.50;;;;;;;14.44;100.00;101377.94;5112492;28;20032;-69
2023/08/14 03:47:43;;;;;;;28.92;19.50;;;;;;;14.42;100.00;101376.59;5112386;28;20100;-69
2023/08/14 03:50:09;;;;;;;24.55;19.73;;;;;;;14.38;100.00;101376.41;5112294;28;20039;-69
2023/08/14 03:52:34;;;;;;;26.25;19.70;;;;;;;14.41;100.00;101374.94;5112363;28;20028;-69
2023/08/14 03:55:00;;;;;;;26.83;21.08;;;;;;;14.39;100.00;101382.81;5112137;28;20027;-68
2023/08/14 03:57:25;;;;;;;29.58;20.60;;;;;;;14.40;100.00;101382.50;5111976;28;20028;-69
2023/08/14 03:59:50;;;;;;;26.70;20.40;;;;;;;14.38;100.00;101372.81;5111765;28;20016;-69
2023/08/14 04:02:16;;;;;;;26.05;20.92;;;;;;;14.40;100.00;101381.69;5112119;28;20022;-69
2023/08/14 04:04:41;;;;;;;26.40;19.73;;;;;;;14.39;100.00;101377.25;5111876;28;20391;-67
2023/08/14 04:07:07;;;;;;;25.90;20.02;;;;;;;14.35;100.00;101374.28;5111777;28;20027;-67
2023/08/14 04:09:32;;;;;;;26.77;19.70;;;;;;;14.32;100.00;101369.34;5110493;28;20444;-68
2023/08/14 04:11:58;;;;;;;26.55;19.80;;;;;;;14.32;100.00;101370.16;5110263;28;20064;-67
2023/08/14 04:14:23;;;;;;;25.23;20.35;;;;;;;14.31;100.00;101370.50;5111605;28;20085;-69
2023/08/14 04:16:49;;;;;;;26.15;20.17;;;;;;;14.31;100.00;101370.50;5111401;28;20019;-69
2023/08/14 04:19:17;;;;;;;26.58;20.58;;;;;;;14.29;100.00;101369.97;5111445;28;20034;-68
2023/08/14 04:21:42;;;;;;;25.58;20.67;;;;;;;14.27;100.00;101373.09;5111619;28;20028;-68
2023/08/14 04:24:08;;;;;;;25.70;20.27;;;;;;;14.30;100.00;101368.84;5110585;28;20036;-67
2023/08/14 04:26:36;;;;;;;26.10;19.98;;;;;;;14.32;100.00;101364.59;5112113;28;20204;-70
2023/08/14 04:29:03;;;;;;;26.65;19.52;;;;;;;14.32;100.00;101353.47;5111807;28;20186;-69
2023/08/14 04:31:28;;;;;;;26.23;19.38;;;;;;;14.28;100.00;101358.03;5111654;28;20030;-68
2023/08/14 04:33:53;;;;;;;25.05;19.33;;;;;;;14.33;100.00;101359.88;5111453;28;20027;-68
2023/08/14 04:36:19;;;;;;;24.27;18.95;;;;;;;14.37;100.00;101349.72;5111688;28;20031;-68
2023/08/14 04:38:44;;;;;;;26.02;19.92;;;;;;;14.42;100.00;101345.97;5111699;28;20043;-68
2023/08/14 04:41:09;;;;;;;26.92;19.48;;;;;;;14.39;100.00;101343.84;5111777;28;20081;-69
2023/08/14 04:43:35;;;;;;;26.42;18.80;;;;;;;14.39;100.00;101347.44;5111707;28;20467;-68
2023/08/14 04:46:09;;;;;;;26.73;19.30;;;;;;;14.47;100.00;101349.44;5111623;28;20062;-67
2023/08/14 04:48:35;;;;;;;26.15;20.33;;;;;;;14.48;100.00;101342.75;5111565;28;20031;-67
2023/08/14 04:51:00;;;;;;;25.90;19.83;;;;;;;14.50;100.00;101345.19;5111375;28;20067;-68
2023/08/14 04:53:25;;;;;;;28.45;20.98;;;;;;;14.48;100.00;101345.53;5111342;28;20028;-68
2023/08/14 04:55:51;;;;;;;27.83;21.65;;;;;;;14.48;100.00;101337.19;5111194;28;20028;-67
2023/08/14 04:58:16;;;;;;;28.38;19.88;;;;;;;14.54;100.00;101342.63;5111345;28;20046;-67
2023/08/14 05:00:42;;;;;;;25.85;20.15;;;;;;;14.59;100.00;101336.88;5111343;28;20073;-67
2023/08/14 05:03:07;;;;;;;25.38;19.55;;;;;;;14.64;100.00;101328.41;5111346;28;20379;-68
2023/08/14 05:05:32;;;;;;;25.45;19.75;;;;;;;14.66;100.00;101321.41;5111437;28;20112;-68
2023/08/14 05:07:57;;;;;;;27.35;20.48;;;;;;;14.71;100.00;101327.94;5111189;28;20126;-67
2023/08/14 05:10:23;;;;;;;27.92;20.48;;;;;;;14.77;100.00;101327.47;5113667;28;20039;-68
2023/08/14 05:12:48;;;;;;;26.95;20.77;;;;;;;14.88;100.00;101330.78;5113951;28;20497;-68
2023/08/14 05:15:13;;;;;;;27.08;20.50;;;;;;;14.96;100.00;101330.00;5115402;28;20028;-68
2023/08/14 05:17:39;;;;;;;26.17;21.00;;;;;;;15.03;100.00;101329.50;5115300;28;20031;-68
2023/08/14 05:20:05;;;;;;;30.67;24.80;;;;;;;15.04;100.00;101320.00;5113854;28;20439;-68
2023/08/14 05:22:31;;;;;;;31.15;23.50;;;;;;;15.06;100.00;101308.56;5115400;27;20028;-68
2023/08/14 05:24:56;;;;;;;31.70;26.02;;;;;;;15.13;100.00;101317.25;5115332;28;20387;-68
2023/08/14 05:27:21;;;;;;;26.65;22.23;;;;;;;15.17;100.00;101312.63;5115025;28;20050;-68
2023/08/14 05:29:47;;;;;;;26.80;20.90;;;;;;;15.25;100.00;101325.78;5114925;28;20134;-69
2023/08/14 05:32:13;;;;;;;27.05;20.92;;;;;;;15.35;100.00;101321.84;5114966;28;20059;-68
2023/08/14 05:34:38;;;;;;;26.55;20.75;;;;;;;15.40;100.00;101321.66;5114972;28;20043;-68
2023/08/14 05:37:03;;;;;;;27.17;20.48;;;;;;;15.53;100.00;101321.84;5114907;28;20039;-68
2023/08/14 05:39:29;;;;;;;25.50;20.42;;;;;;;15.64;100.00;101323.16;5113544;28;20031;-68
2023/08/14 05:41:54;;;;;;;28.85;20.50;;;;;;;15.72;100.00;101324.31;5113480;28;20153;-68
2023/08/14 05:44:19;;;;;;;25.52;20.08;;;;;;;15.83;100.00;101324.78;5114831;28;20475;-68
2023/08/14 05:46:45;;;;;;;25.52;20.42;;;;;;;15.91;100.00;101337.91;5113378;28;20047;-68
2023/08/14 05:49:10;;;;;;;25.38;20.45;;;;;;;16.00;100.00;101335.94;5114844;28;20371;-68
2023/08/14 05:51:35;;;;;;;26.15;20.30;;;;;;;16.04;100.00;101341.66;5114798;28;20024;-68
2023/08/14 05:54:01;;;;;;;25.92;20.40;;;;;;;16.11;100.00;101335.59;5114582;28;20042;-68
2023/08/14 05:56:26;;;;;;;26.45;19.83;;;;;;;16.13;100.00;101341.66;5113187;28;20157;-68
2023/08/14 05:58:51;;;;;;;24.50;19.70;;;;;;;16.14;100.00;101344.13;5114536;28;20361;-68
2023/08/14 06:01:17;;;;;;;26.15;20.70;;;;;;;16.17;100.00;101346.25;5114505;28;20040;-68
2023/08/14 06:03:42;;;;;;;27.25;20.48;;;;;;;16.21;100.00;101363.16;5114364;28;20023;-68
2023/08/14 06:06:08;;;;;;;27.23;21.08;;;;;;;16.24;100.00;101356.91;5114452;28;20024;-68
2023/08/14 06:08:34;;;;;;;26.25;21.58;;;;;;;16.27;100.00;101364.59;5114515;28;20026;-68
2023/08/14 06:11:01;;;;;;;24.83;20.52;;;;;;;16.30;100.00;101365.91;5114665;28;20425;-68
2023/08/14 06:13:27;;;;;;;31.52;24.60;;;;;;;16.38;100.00;101356.72;5114375;28;20115;-69
2023/08/14 06:15:53;;;;;;;28.20;22.40;;;;;;;16.45;100.00;101359.78;5114203;28;20061;-68
2023/08/14 06:18:18;;;;;;;26.42;21.67;;;;;;;16.55;100.00;101360.59;5114171;28;20024;-68
2023/08/14 06:20:43;;;;;;;28.08;21.20;;;;;;;16.64;100.00;101370.56;5112022;28;20360;-68
2023/08/14 06:23:09;;;;;;;27.15;21.23;;;;;;;16.72;100.00;101374.47;5113715;28;20091;-68
2023/08/14 06:25:34;;;;;;;27.60;21.35;;;;;;;16.79;100.00;101371.97;5114108;28;20119;-68
2023/08/14 06:27:59;;;;;;;28.55;21.92;;;;;;;16.84;100.00;101359.78;5114249;28;20119;-69
2023/08/14 06:30:25;;;;;;;26.70;21.48;;;;;;;16.90;100.00;101355.66;5114057;28;20045;-68
2023/08/14 06:32:50;;;;;;;28.13;21.48;;;;;;;16.94;100.00;101358.63;5113945;28;20023;-68
2023/08/14 06:35:16;;;;;;;26.98;21.77;;;;;;;16.99;100.00;101359.25;5113947;28;20069;-68
2023/08/14 06:37:41;;;;;;;28.42;22.33;;;;;;;17.06;100.00;101352.31;5113841;28;20035;-68
2023/08/14 06:40:08;;;;;;;27.02;23.13;;;;;;;17.10;100.00;101342.06;5113855;28;20065;-68
2023/08/14 06:42:33;;;;;;;28.88;22.13;;;;;;;17.27;100.00;101355.97;5113786;28;20032;-68
2023/08/14 06:44:58;;;;;;;29.35;23.08;;;;;;;17.48;100.00;101363.50;5114056;28;20039;-69
2023/08/14 06:47:24;;;;;;;28.30;22.75;;;;;;;17.69;100.00;101346.75;5113677;28;20497;-69
2023/08/14 06:49:49;;;;;;;27.95;22.08;;;;;;;17.89;100.00;101353.47;5113639;27;20020;-68
2023/08/14 06:52:14;;;;;;;25.95;21.67;;;;;;;17.99;100.00;101343.84;5113622;27;20106;-68
2023/08/14 06:54:40;;;;;;;28.38;21.58;;;;;;;18.05;100.00;101342.47;5113577;28;20053;-68
2023/08/14 06:57:07;;;;;;;26.10;21.02;;;;;;;18.15;100.00;101341.19;5113526;28;20058;-68
2023/08/14 06:59:33;;;;;;;28.98;21.23;;;;;;;18.19;100.00;101349.72;5113485;27;20034;-68
2023/08/14 07:01:58;;;;;;;27.42;20.58;;;;;;;18.29;100.00;101349.28;5113770;28;20067;-68
2023/08/14 07:04:23;;;;;;;26.67;21.00;;;;;;;18.44;100.00;101347.78;5113321;28;20054;-68
2023/08/14 07:06:49;;;;;;;27.70;21.35;;;;;;;18.63;100.00;101335.19;5113361;28;20035;-68
2023/08/14 07:09:16;;;;;;;27.15;21.00;;;;;;;18.75;100.00;101334.41;5113257;28;20084;-68
2023/08/14 07:11:42;;;;;;;25.52;19.48;;;;;;;18.94;100.00;101337.44;5113264;28;20156;-68
2023/08/14 07:14:07;;;;;;;26.00;20.27;;;;;;;19.15;100.00;101336.47;5113095;28;20102;-68
2023/08/14 07:16:33;;;;;;;28.23;20.27;;;;;;;19.36;100.00;101346.72;5112924;28;20387;-68
2023/08/14 07:18:58;;;;;;;26.83;20.60;;;;;;;19.53;100.00;101337.22;5112968;28;20032;-69
2023/08/14 07:21:24;;;;;;;26.08;20.13;;;;;;;19.62;100.00;101341.50;5112876;27;20028;-68
2023/08/14 07:23:49;;;;;;;26.38;20.48;;;;;;;19.60;100.00;101343.03;5112851;28;20891;-68
2023/08/14 07:26:15;;;;;;;27.38;20.08;;;;;;;19.52;100.00;101342.00;5112846;28;20078;-68
2023/08/14 07:28:41;;;;;;;26.65;20.38;;;;;;;19.55;100.00;101337.69;5112489;28;20486;-68
2023/08/14 07:31:07;;;;;;;26.80;19.45;;;;;;;19.60;100.00;101334.63;5112770;28;20031;-69
2023/08/14 07:33:33;;;;;;;25.23;20.08;;;;;;;19.63;100.00;101339.53;5112489;28;20028;-68
2023/08/14 07:35:59;;;;;;;26.00;20.58;;;;;;;19.62;100.00;101341.50;5112603;28;20455;-68
2023/08/14 07:38:25;;;;;;;24.42;19.75;;;;;;;19.64;100.00;101343.97;5112544;28;20410;-68
2023/08/14 07:40:51;;;;;;;27.25;19.23;;;;;;;19.64;100.00;101349.56;5112559;28;20023;-69
2023/08/14 07:43:17;;;;;;;26.98;20.10;;;;;;;19.58;100.00;101359.41;5112514;28;20023;-68
2023/08/14 07:45:43;;;;;;;26.17;19.40;;;;;;;19.44;100.00;101362.59;5112706;28;20110;-69
2023/08/14 07:48:09;;;;;;;27.17;18.63;;;;;;;19.39;100.00;101365.66;5112377;28;20030;-68
2023/08/14 07:50:34;;;;;;;25.98;18.80;;;;;;;19.41;100.00;101372.56;5110984;28;20024;-68
2023/08/14 07:53:00;;;;;;;29.10;19.08;;;;;;;19.44;100.00;101368.22;5112187;28;20479;-68
2023/08/14 07:55:25;;;;;;;26.13;18.02;;;;;;;19.47;100.00;101362.69;5112230;28;20535;-68
2023/08/14 07:57:50;;;;;;;25.20;17.35;;;;;;;19.60;100.00;101362.69;5112007;28;20032;-68
2023/08/14 08:00:16;;;;;;;24.88;17.17;;;;;;;19.70;100.00;101361.34;5112137;28;20023;-68
2023/08/14 08:02:42;;;;;;;27.58;16.73;;;;;;;19.80;100.00;101364.47;5112108;28;20424;-68
2023/08/14 08:05:08;;;;;;;21.42;16.10;;;;;;;19.88;100.00;101359.09;5112331;28;20024;-68
2023/08/14 08:07:33;;;;;;;22.70;15.40;;;;;;;19.90;100.00;101359.56;5111877;28;20080;-67
2023/08/14 08:09:58;;;;;;;25.27;15.90;;;;;;;20.00;100.00;101370.28;5112056;28;20048;-67
2023/08/14 08:12:24;;;;;;;24.02;16.30;;;;;;;20.12;100.00;101374.19;5111802;28;20062;-68
2023/08/14 08:14:49;;;;;;;24.63;16.67;;;;;;;20.19;100.00;101363.16;5110511;28;20107;-67
2023/08/14 08:17:16;;;;;;;24.48;16.10;;;;;;;20.31;100.00;101365.06;5110306;28;20038;-68
2023/08/14 08:19:42;;;;;;;23.25;15.10;;;;;;;20.35;97.87;101371.63;5111860;28;20528;-68
2023/08/14 08:22:07;;;;;;;23.83;15.63;;;;;;;20.38;97.81;101365.25;5111733;28;20023;-69
2023/08/14 08:24:33;;;;;;;23.33;14.90;;;;;;;20.41;96.31;101359.72;5111697;28;20055;-68
2023/08/14 08:26:58;;;;;;;22.83;16.35;;;;;;;20.46;94.50;101357.84;5111613;28;20031;-68
2023/08/14 08:29:23;;;;;;;22.73;15.05;;;;;;;20.56;94.97;101358.09;5111504;28;20045;-68
2023/08/14 08:31:48;;;;;;;22.20;14.73;;;;;;;20.63;94.25;101348.22;5111652;28;20506;-68
2023/08/14 08:34:14;;;;;;;24.45;14.43;;;;;;;20.71;93.54;101344.41;5111798;28;20093;-68
2023/08/14 08:36:39;;;;;;;24.95;14.75;;;;;;;20.79;93.42;101336.97;5111728;28;20455;-68
2023/08/14 08:39:04;;;;;;;24.05;14.57;;;;;;;20.92;93.36;101337.72;5111740;28;20118;-68
2023/08/14 08:41:31;;;;;;;21.25;14.02;;;;;;;20.98;90.93;101342.66;5111646;28;20031;-68
2023/08/14 08:44:09;;;;;;;22.10;14.45;;;;;;;21.12;91.44;101335.75;5111094;28;20023;-68
2023/08/14 08:46:39;;;;;;;21.80;13.98;;;;;;;21.17;87.47;101332.63;5111743;28;20027;-69
2023/08/14 08:49:05;;;;;;;21.02;13.65;;;;;;;21.21;86.64;101329.94;5111757;28;20077;-69
2023/08/14 08:51:31;;;;;;;21.08;13.77;;;;;;;21.27;86.15;101325.63;5111578;28;20077;-68
2023/08/14 08:53:58;;;;;;;19.83;12.88;;;;;;;21.33;86.59;101322.16;5111584;28;20094;-68
2023/08/14 08:56:25;;;;;;;20.73;13.40;;;;;;;21.44;85.97;101333.66;5111122;28;20506;-68
2023/08/14 08:58:52;;;;;;;20.10;13.05;;;;;;;21.50;85.81;101325.72;5111193;28;20034;-68
2023/08/14 09:01:19;;;;;;;21.02;12.80;;;;;;;21.62;86.01;101336.88;5111194;28;20176;-68
2023/08/14 09:03:45;;;;;;;23.60;13.32;;;;;;;21.69;84.46;101333.38;5109799;28;20027;-68
2023/08/14 09:06:10;;;;;;;20.40;12.80;;;;;;;21.76;84.28;101316.66;5111363;28;20098;-68
2023/08/14 09:08:36;;;;;;;21.02;12.48;;;;;;;21.88;83.83;101317.66;5111082;28;20527;-68
2023/08/14 09:11:01;;;;;;;20.02;12.27;;;;;;;22.01;83.73;101321.94;5111171;28;20410;-68
2023/08/14 09:13:27;;;;;;;18.40;12.00;;;;;;;22.09;81.92;101325.72;5111385;28;20050;-69
2023/08/14 09:15:52;;;;;;;19.02;11.75;;;;;;;22.19;81.10;101315.81;5111049;28;20086;-68
2023/08/14 09:18:17;;;;;;;21.10;11.60;;;;;;;22.29;79.55;101323.66;5109544;28;20031;-69
2023/08/14 09:20:43;;;;;;;21.50;11.60;;;;;;;22.42;79.42;101322.31;5111048;28;20039;-69
2023/08/14 09:23:14;;;;;;;20.25;11.40;;;;;;;22.57;79.21;101322.53;5110975;28;20058;-68
2023/08/14 09:25:41;;;;;;;20.52;11.70;;;;;;;22.62;79.17;101316.59;5110922;28;20043;-68
2023/08/14 09:28:08;;;;;;;18.48;11.07;;;;;;;22.78;80.30;101316.41;5110882;28;20035;-68
2023/08/14 09:30:36;;;;;;;18.55;11.10;;;;;;;22.86;77.11;101328.63;5110921;28;20104;-68
2023/08/14 09:33:03;;;;;;;17.83;10.98;;;;;;;22.93;75.14;101330.75;5111139;28;20095;-68
2023/08/14 09:35:28;;;;;;;18.58;10.85;;;;;;;23.03;74.70;101325.25;5110942;28;20122;-68
2023/08/14 09:37:53;;;;;;;16.70;10.35;;;;;;;23.10;73.31;101323.72;5110967;28;20169;-68
2023/08/14 09:40:19;;;;;;;18.67;10.43;;;;;;;23.11;71.90;101326.19;5111200;28;20115;-69
2023/08/14 09:42:46;;;;;;;19.08;11.23;;;;;;;23.16;74.89;101337.13;5110926;28;20431;-69
2023/08/14 09:45:13;;;;;;;18.63;10.82;;;;;;;23.16;72.94;101348.41;5111041;28;20024;-69
2023/08/14 09:47:43;;;;;;;17.17;10.68;;;;;;;23.34;74.97;101342.22;5110894;28;20475;-69
2023/08/14 09:50:10;;;;;;;20.65;10.80;;;;;;;23.42;73.68;101340.34;5110943;28;20028;-68
2023/08/14 09:52:36;;;;;;;18.23;10.70;;;;;;;23.43;71.18;101344.78;5111152;28;20032;-68
2023/08/14 09:55:02;;;;;;;16.27;9.48;;;;;;;23.35;71.30;101336.22;5110920;28;20042;-69
2023/08/14 09:57:27;;;;;;;17.92;10.20;;;;;;;23.37;72.99;101330.19;5114403;27;20116;-69
2023/08/14 09:59:53;;;;;;;15.52;9.57;;;;;;;23.48;69.22;101333.13;5114622;28;20039;-69
2023/08/14 10:02:22;;;;;;;17.75;9.82;;;;;;;23.62;69.16;101326.84;5114544;28;20516;-68
2023/08/14 10:04:48;;;;;;;16.38;10.02;;;;;;;23.68;68.85;101316.88;5112969;28;20050;-68
2023/08/14 10:07:14;;;;;;;17.90;9.75;;;;;;;23.74;65.84;101318.13;5113356;28;20028;-69
2023/08/14 10:09:51;;;;;;;14.18;9.90;;;;;;;23.83;67.67;101312.19;5112980;28;20081;-69
2023/08/14 10:12:21;;;;;;;15.52;9.60;;;;;;;23.80;63.89;101305.31;5114683;28;20062;-69
2023/08/14 10:14:57;;;;;;;14.15;9.45;;;;;;;23.82;64.95;101300.06;5114474;28;20041;-69
2023/08/14 10:17:31;;;;;;;16.75;9.65;;;;;;;23.68;64.55;101283.78;5114225;28;20107;-68
2023/08/14 10:20:01;;;;;;;15.70;9.85;;;;;;;23.79;63.58;101297.19;5114532;28;20047;-69
2023/08/14 10:22:27;;;;;;;15.43;9.50;;;;;;;23.86;62.41;101282.34;5114028;28;20104;-68
2023/08/14 10:24:53;;;;;;;15.63;9.75;;;;;;;23.99;62.34;101278.09;5114050;28;20239;-69
2023/08/14 10:27:19;;;;;;;16.05;9.73;;;;;;;24.16;62.67;101276.59;5114029;28;20031;-68
2023/08/14 10:29:46;;;;;;;14.05;9.23;;;;;;;24.13;60.80;101271.75;5113673;27;20104;-68
2023/08/14 10:32:12;;;;;;;17.17;9.90;;;;;;;24.35;62.66;101264.25;5113994;28;20024;-69
2023/08/14 10:34:38;;;;;;;15.00;9.20;;;;;;;24.36;60.35;101265.91;5113827;28;20349;-68
2023/08/14 10:37:04;;;;;;;16.65;9.57;;;;;;;24.45;61.54;101254.22;5113679;28;20137;-69
2023/08/14 10:39:37;;;;;;;15.73;9.70;;;;;;;24.56;61.34;101249.47;5113868;27;20027;-69
2023/08/14 10:42:06;;;;;;;16.33;9.70;;;;;;;24.67;61.46;101246.69;5113948;28;20080;-68
2023/08/14 10:44:35;;;;;;;16.58;9.68;;;;;;;24.73;59.52;101248.00;5113682;28;20051;-68
2023/08/14 10:47:05;;;;;;;14.65;9.20;;;;;;;24.83;59.02;101239.97;5113687;28;20483;-69
2023/08/14 10:49:41;;;;;;;15.82;9.20;;;;;;;24.89;58.49;101242.00;5113677;28;20043;-68
2023/08/14 10:52:06;;;;;;;16.02;9.20;;;;;;;25.00;57.54;101241.25;5113734;28;20486;-67
2023/08/14 10:54:37;;;;;;;15.80;9.40;;;;;;;24.98;57.20;101233.16;5113472;28;20019;-68
2023/08/14 10:57:09;;;;;;;17.25;9.40;;;;;;;25.14;58.34;101244.16;5113364;28;20027;-68
2023/08/14 10:59:35;;;;;;;16.25;9.40;;;;;;;25.22;57.77;101254.31;5113473;28;20118;-68
2023/08/14 11:02:09;;;;;;;15.55;9.40;;;;;;;25.38;58.63;101256.81;5113273;28;20099;-69